Time;durP1;ratioP1;P1;durP2;ratioP2;P2;SDS_P1;SDS_P2;PMS_P1;PMS_P2;Temp;Humidity;BMP_temperature;BMP_pressure;BME280_temperature;BME280_humidity;BME280_pressure;Samples;Min_cycle;Max_cycle;Signal;HPM_P1;HPM_P2
2023/10/17 00:01:35;;;;;;;0.85;0.77;;;;;;;;;;5005228;28;20045;-81
2023/10/17 00:04:24;;;;;;;0.93;0.80;;;;;;;;;;5006545;28;20041;-79
2023/10/17 00:06:51;;;;;;;0.73;0.70;;;;;;;;;;5007903;28;20026;-82
2023/10/17 00:09:26;;;;;;;0.80;0.75;;;;;;;;;;5006452;28;20069;-80
2023/10/17 00:14:20;;;;;;;1.20;0.77;;;;;;;;;;5025496;28;20030;-82
2023/10/17 00:16:46;;;;;;;0.80;0.73;;;;;;;;;;5011256;28;20022;-83
2023/10/17 00:19:16;;;;;;;1.05;0.95;;;;;;;;;;5007528;28;20382;-80
2023/10/17 00:21:42;;;;;;;1.30;0.98;;;;;;;;;;5005494;28;20136;-81
2023/10/17 00:24:09;;;;;;;0.80;0.80;;;;;;;;;;5005800;28;20026;-82
2023/10/17 00:26:36;;;;;;;0.73;0.70;;;;;;;;;;5005229;28;20032;-84
2023/10/17 00:29:05;;;;;;;0.77;0.75;;;;;;;;;;5004619;28;20050;-80
2023/10/17 00:31:32;;;;;;;1.10;0.90;;;;;;;;;;5004619;28;20022;-80
2023/10/17 00:33:58;;;;;;;2.97;0.80;;;;;;;;;;5004612;28;20029;-80
2023/10/17 00:36:26;;;;;;;1.30;0.90;;;;;;;;;;5005507;28;20048;-80
2023/10/17 00:38:54;;;;;;;1.00;0.85;;;;;;;;;;5006849;28;20032;-80
2023/10/17 00:41:32;;;;;;;0.80;0.80;;;;;;;;;;5005243;28;20038;-81
2023/10/17 00:43:59;;;;;;;1.00;0.85;;;;;;;;;;5005609;28;20082;-80
2023/10/17 00:46:25;;;;;;;1.30;1.05;;;;;;;;;;5005169;28;20029;-81
2023/10/17 00:48:52;;;;;;;0.95;0.82;;;;;;;;;;5005679;28;20049;-82
2023/10/17 00:51:21;;;;;;;0.88;0.70;;;;;;;;;;5004907;28;20025;-81
2023/10/17 00:53:47;;;;;;;1.58;1.30;;;;;;;;;;5006543;28;20018;-81
2023/10/17 00:56:13;;;;;;;1.20;0.98;;;;;;;;;;5004799;28;20018;-78
2023/10/17 00:58:42;;;;;;;0.98;0.90;;;;;;;;;;5003569;28;20026;-78
2023/10/17 01:01:20;;;;;;;0.93;0.85;;;;;;;;;;5004286;28;20026;-79
2023/10/17 01:03:51;;;;;;;0.98;0.88;;;;;;;;;;5003582;28;20050;-78
2023/10/17 01:06:36;;;;;;;0.82;0.80;;;;;;;;;;5004286;28;20029;-79
2023/10/17 01:09:18;;;;;;;0.70;0.70;;;;;;;;;;5002668;28;20032;-78
2023/10/17 01:11:48;;;;;;;1.17;0.93;;;;;;;;;;5005017;28;20028;-78
2023/10/17 01:14:18;;;;;;;1.20;1.00;;;;;;;;;;5004266;28;20014;-78
2023/10/17 01:16:45;;;;;;;0.75;0.75;;;;;;;;;;5023939;28;20018;-79
2023/10/17 01:19:13;;;;;;;1.25;1.00;;;;;;;;;;5005357;28;20086;-78
2023/10/17 01:21:40;;;;;;;1.02;0.90;;;;;;;;;;5005835;28;20034;-79
2023/10/17 01:24:07;;;;;;;1.30;1.13;;;;;;;;;;5009509;28;20033;-80
2023/10/17 01:26:37;;;;;;;0.80;0.75;;;;;;;;;;5007902;28;20026;-78
2023/10/17 01:29:04;;;;;;;0.88;0.82;;;;;;;;;;5008915;28;20454;-78
2023/10/17 01:31:38;;;;;;;0.80;0.80;;;;;;;;;;5010435;28;20030;-78
2023/10/17 01:34:08;;;;;;;0.73;0.70;;;;;;;;;;5006995;28;20053;-79
2023/10/17 01:36:37;;;;;;;0.93;0.80;;;;;;;;;;5001973;28;20022;-78
2023/10/17 01:39:08;;;;;;;1.35;1.25;;;;;;;;;;5002463;28;20068;-78
2023/10/17 01:41:34;;;;;;;0.80;0.80;;;;;;;;;;5002724;28;20026;-79
2023/10/17 01:44:01;;;;;;;0.80;0.80;;;;;;;;;;5020409;28;20049;-79
2023/10/17 01:46:31;;;;;;;1.00;0.90;;;;;;;;;;5003040;28;20108;-80
2023/10/17 01:49:00;;;;;;;1.50;1.00;;;;;;;;;;5021257;28;20025;-79
2023/10/17 01:51:27;;;;;;;0.95;0.82;;;;;;;;;;5009106;28;20053;-79
2023/10/17 01:53:53;;;;;;;0.98;0.88;;;;;;;;;;5004888;28;20029;-79
2023/10/17 01:56:29;;;;;;;1.27;0.98;;;;;;;;;;5002197;28;20021;-78
2023/10/17 01:58:59;;;;;;;0.68;0.68;;;;;;;;;;5001817;28;20072;-78
2023/10/17 02:01:25;;;;;;;0.82;0.82;;;;;;;;;;5002252;28;20046;-78
2023/10/17 02:03:52;;;;;;;1.13;0.95;;;;;;;;;;5002115;28;20046;-78
2023/10/17 02:06:22;;;;;;;0.70;0.70;;;;;;;;;;5002289;28;20102;-78
2023/10/17 02:08:48;;;;;;;0.80;0.70;;;;;;;;;;5002892;28;20029;-78
2023/10/17 02:11:23;;;;;;;0.80;0.75;;;;;;;;;;5002451;28;20030;-79
2023/10/17 02:13:59;;;;;;;0.60;0.60;;;;;;;;;;5003005;28;20069;-80
2023/10/17 02:16:28;;;;;;;0.85;0.80;;;;;;;;;;5007393;28;20022;-79
2023/10/17 02:18:55;;;;;;;1.00;0.90;;;;;;;;;;5008347;28;20026;-78
2023/10/17 02:21:21;;;;;;;1.02;0.90;;;;;;;;;;5000875;28;20040;-78
2023/10/17 02:23:49;;;;;;;1.20;1.10;;;;;;;;;;5002101;28;20023;-80
2023/10/17 02:26:21;;;;;;;1.23;1.00;;;;;;;;;;5001703;28;20030;-79
2023/10/17 02:28:47;;;;;;;1.15;1.05;;;;;;;;;;5002001;28;20030;-79
2023/10/17 02:31:14;;;;;;;0.70;0.70;;;;;;;;;;5002401;28;20389;-79
2023/10/17 02:33:43;;;;;;;2.05;1.08;;;;;;;;;;5001998;28;20034;-79
2023/10/17 02:36:12;;;;;;;0.70;0.70;;;;;;;;;;5000771;28;20026;-79
2023/10/17 02:38:42;;;;;;;0.90;0.80;;;;;;;;;;5001025;28;20014;-79
2023/10/17 02:41:09;;;;;;;1.35;1.02;;;;;;;;;;5001744;28;20022;-80
2023/10/17 02:43:40;;;;;;;0.70;0.70;;;;;;;;;;5001899;28;20022;-80
2023/10/17 02:46:06;;;;;;;1.00;0.90;;;;;;;;;;5020496;28;20048;-80
2023/10/17 02:48:39;;;;;;;0.93;0.82;;;;;;;;;;5020618;28;20081;-79
2023/10/17 02:51:11;;;;;;;0.60;0.60;;;;;;;;;;5005777;28;20085;-80
2023/10/17 02:53:43;;;;;;;0.80;0.70;;;;;;;;;;5007104;28;20036;-78
2023/10/17 02:56:18;;;;;;;1.00;0.90;;;;;;;;;;5024650;28;20295;-80
2023/10/17 02:58:59;;;;;;;1.13;0.93;;;;;;;;;;5006759;28;20072;-78
2023/10/17 03:01:27;;;;;;;2.10;1.10;;;;;;;;;;5006625;28;20045;-78
2023/10/17 03:03:53;;;;;;;1.00;0.90;;;;;;;;;;5010397;28;20061;-78
2023/10/17 03:06:19;;;;;;;0.90;0.80;;;;;;;;;;5010103;28;20105;-80
2023/10/17 03:08:51;;;;;;;0.88;0.80;;;;;;;;;;5009548;28;20381;-80
2023/10/17 03:11:17;;;;;;;2.15;0.95;;;;;;;;;;5023763;28;20033;-78
2023/10/17 03:13:44;;;;;;;0.90;0.80;;;;;;;;;;5005524;28;20052;-79
2023/10/17 03:16:17;;;;;;;1.00;0.90;;;;;;;;;;5004995;28;20018;-79
2023/10/17 03:18:49;;;;;;;0.70;0.70;;;;;;;;;;5006125;28;20054;-78
2023/10/17 03:21:18;;;;;;;1.20;0.90;;;;;;;;;;5006075;28;20417;-79
2023/10/17 03:23:48;;;;;;;0.65;0.65;;;;;;;;;;5023920;28;20026;-78
2023/10/17 03:26:17;;;;;;;1.05;0.80;;;;;;;;;;5006683;28;20057;-80
2023/10/17 03:28:45;;;;;;;0.70;0.70;;;;;;;;;;5006794;28;20041;-79
2023/10/17 03:31:19;;;;;;;1.00;0.90;;;;;;;;;;5006459;28;20026;-77
2023/10/17 03:33:50;;;;;;;1.00;0.88;;;;;;;;;;5005600;28;20488;-79
2023/10/17 03:42:06;;;;;;;1.65;0.93;;;;;;;;;;4944848;29;20057;-78
2023/10/17 03:44:39;;;;;;;0.70;0.70;;;;;;;;;;4928955;29;20092;-79
2023/10/17 03:47:05;;;;;;;1.17;1.08;;;;;;;;;;4928682;29;20120;-79
2023/10/17 03:49:37;;;;;;;0.70;0.70;;;;;;;;;;4929194;29;20515;-79
2023/10/17 03:52:06;;;;;;;0.60;0.60;;;;;;;;;;4929585;29;20027;-79
2023/10/17 03:54:38;;;;;;;0.88;0.80;;;;;;;;;;4929059;29;20051;-78
2023/10/17 03:57:05;;;;;;;0.90;0.80;;;;;;;;;;4928431;29;20386;-79
2023/10/17 03:59:41;;;;;;;1.13;0.90;;;;;;;;;;4929526;29;20047;-78
2023/10/17 04:02:18;;;;;;;0.93;0.82;;;;;;;;;;4929060;29;20059;-79
2023/10/17 04:04:54;;;;;;;0.80;0.70;;;;;;;;;;4931894;29;20020;-78
2023/10/17 04:07:26;;;;;;;0.93;0.82;;;;;;;;;;4936374;29;20039;-81
2023/10/17 04:09:52;;;;;;;0.90;0.80;;;;;;;;;;4926898;29;20023;-78
2023/10/17 04:12:48;;;;;;;0.70;0.70;;;;;;;;;;4947153;28;20129;-79
2023/10/17 04:15:18;;;;;;;1.10;1.00;;;;;;;;;;5004726;28;20030;-79
2023/10/17 04:17:46;;;;;;;1.10;0.90;;;;;;;;;;5004112;28;20030;-79
2023/10/17 04:20:12;;;;;;;1.17;1.00;;;;;;;;;;5003535;28;20026;-79
2023/10/17 04:22:39;;;;;;;0.73;0.70;;;;;;;;;;5020868;28;20017;-78
2023/10/17 04:27:54;;;;;;;0.77;0.70;;;;;;;;;;5021133;28;20036;-78
2023/10/17 04:30:29;;;;;;;1.35;1.00;;;;;;;;;;5003394;28;20028;-78
2023/10/17 04:33:08;;;;;;;1.05;0.95;;;;;;;;;;5001878;28;20026;-78
2023/10/17 04:35:35;;;;;;;0.95;0.80;;;;;;;;;;5003287;28;20046;-78
2023/10/17 04:39:10;;;;;;;0.75;0.75;;;;;;;;;;5001576;28;20076;-78
2023/10/17 04:41:40;;;;;;;1.63;1.10;;;;;;;;;;5002484;28;20033;-77
2023/10/17 04:44:05;;;;;;;1.35;1.08;;;;;;;;;;5019069;28;20062;-78
2023/10/17 04:46:37;;;;;;;2.88;1.17;;;;;;;;;;5001843;28;20022;-78
2023/10/17 04:49:06;;;;;;;0.60;0.60;;;;;;;;;;5000939;28;20084;-77
2023/10/17 04:51:38;;;;;;;1.25;1.05;;;;;;;;;;5001286;28;20038;-79
2023/10/17 04:54:22;;;;;;;0.85;0.82;;;;;;;;;;5002559;28;20429;-79
2023/10/17 04:57:04;;;;;;;0.70;0.70;;;;;;;;;;5002417;28;20018;-78
2023/10/17 05:07:30;;;;;;;0.80;0.70;;;;;;;;;;5019175;28;20497;-78
2023/10/17 06:18:39;;;;;;;0.80;0.80;;;;;;;;;;5024068;28;20041;-78
2023/10/17 06:34:19;;;;;;;1.20;1.00;;;;;;;;;;5030264;28;20121;-78
2023/10/17 06:36:50;;;;;;;1.00;0.90;;;;;;;;;;5007854;28;20029;-79
2023/10/17 06:39:17;;;;;;;1.30;0.80;;;;;;;;;;5015248;28;20022;-79
2023/10/17 06:41:44;;;;;;;1.10;1.00;;;;;;;;;;5008877;28;20112;-79
2023/10/17 06:44:15;;;;;;;1.38;0.95;;;;;;;;;;5004749;28;20026;-81
2023/10/17 06:54:43;;;;;;;1.33;1.23;;;;;;;;;;5020391;28;20076;-79
2023/10/17 06:57:19;;;;;;;0.85;0.80;;;;;;;;;;5004765;28;20065;-80
2023/10/17 06:59:52;;;;;;;0.70;0.70;;;;;;;;;;5002931;28;20037;-79
2023/10/17 07:05:21;;;;;;;0.70;0.70;;;;;;;;;;4942512;29;20024;-79
2023/10/17 07:07:53;;;;;;;1.00;0.90;;;;;;;;;;4942804;29;20035;-77
2023/10/17 07:13:17;;;;;;;1.30;1.02;;;;;;;;;;4943534;29;20039;-79
2023/10/17 07:15:43;;;;;;;1.05;0.80;;;;;;;;;;4946452;29;20052;-80
2023/10/17 07:23:55;;;;;;;1.10;1.00;;;;;;;;;;4921272;29;20036;-79
2023/10/17 07:26:38;;;;;;;1.17;1.00;;;;;;;;;;4907140;29;20485;-79
2023/10/17 07:29:05;;;;;;;0.70;0.70;;;;;;;;;;4906489;29;20047;-78
2023/10/17 07:31:32;;;;;;;1.13;0.95;;;;;;;;;;4905603;29;20415;-79
2023/10/17 07:36:43;;;;;;;1.30;1.10;;;;;;;;;;4921634;29;20060;-78
2023/10/17 07:39:22;;;;;;;1.15;0.90;;;;;;;;;;4905878;29;20039;-80
2023/10/17 07:41:55;;;;;;;1.45;1.08;;;;;;;;;;4937458;28;20039;-79
2023/10/17 07:44:27;;;;;;;0.73;0.73;;;;;;;;;;4962712;28;20031;-78
2023/10/17 07:47:08;;;;;;;1.20;1.02;;;;;;;;;;4961622;28;20089;-78
2023/10/17 07:49:43;;;;;;;0.98;0.88;;;;;;;;;;4961898;28;20082;-78
2023/10/17 07:52:15;;;;;;;1.25;0.93;;;;;;;;;;4962235;28;20074;-79
2023/10/17 07:57:26;;;;;;;3.67;1.05;;;;;;;;;;4992024;28;20072;-78
2023/10/17 07:59:56;;;;;;;1.33;1.00;;;;;;;;;;5001567;28;20029;-78
2023/10/17 08:02:23;;;;;;;1.90;1.13;;;;;;;;;;4999336;28;20517;-79
2023/10/17 08:04:51;;;;;;;1.25;1.00;;;;;;;;;;5000541;28;20022;-79
2023/10/17 08:07:20;;;;;;;1.75;1.23;;;;;;;;;;5017915;28;20409;-79
2023/10/17 08:09:56;;;;;;;0.90;0.77;;;;;;;;;;4999992;28;20041;-78
2023/10/17 08:12:23;;;;;;;1.90;1.15;;;;;;;;;;5001384;28;20032;-81
2023/10/17 08:14:58;;;;;;;1.10;0.93;;;;;;;;;;4994122;28;20027;-79
2023/10/17 08:17:28;;;;;;;1.13;0.88;;;;;;;;;;4978769;28;20030;-76
2023/10/17 08:22:58;;;;;;;1.08;0.80;;;;;;;;;;4949311;28;20039;-78
2023/10/17 08:25:32;;;;;;;1.98;1.40;;;;;;;;;;4967641;28;20030;-79
2023/10/17 08:27:58;;;;;;;1.13;0.93;;;;;;;;;;5003112;28;20022;-78
2023/10/17 08:30:26;;;;;;;1.25;0.93;;;;;;;;;;5002356;28;20026;-80
2023/10/17 08:33:11;;;;;;;1.23;1.05;;;;;;;;;;5004077;28;20022;-81
2023/10/17 08:35:38;;;;;;;0.70;0.70;;;;;;;;;;5005877;28;20022;-80
2023/10/17 08:38:06;;;;;;;1.42;1.08;;;;;;;;;;5013420;28;20022;-82
2023/10/17 08:40:40;;;;;;;1.30;1.05;;;;;;;;;;5001072;28;20030;-79
2023/10/17 08:43:19;;;;;;;3.10;1.38;;;;;;;;;;5019255;28;20030;-80
2023/10/17 08:45:54;;;;;;;1.23;0.90;;;;;;;;;;5018819;28;20025;-81
2023/10/17 08:48:20;;;;;;;0.73;0.70;;;;;;;;;;4999909;28;20029;-80
2023/10/17 08:50:46;;;;;;;1.15;0.90;;;;;;;;;;5000070;28;20022;-79
2023/10/17 08:53:30;;;;;;;0.63;0.63;;;;;;;;;;5001320;28;20030;-79
2023/10/17 08:55:58;;;;;;;1.23;1.00;;;;;;;;;;5003263;28;20462;-79
2023/10/17 08:58:32;;;;;;;1.20;0.98;;;;;;;;;;5003103;28;20033;-79
2023/10/17 09:01:13;;;;;;;2.55;1.38;;;;;;;;;;4991292;28;20586;-79
2023/10/17 09:03:50;;;;;;;1.38;0.90;;;;;;;;;;4969965;28;20062;-78
2023/10/17 09:11:14;;;;;;;3.15;0.90;;;;;;;;;;4986294;28;20035;-79
2023/10/17 09:16:16;;;;;;;0.93;0.70;;;;;;;;;;5020515;28;20052;-79
2023/10/17 09:18:50;;;;;;;1.30;1.10;;;;;;;;;;5002433;28;20112;-78
2023/10/17 09:21:20;;;;;;;1.40;1.05;;;;;;;;;;5019362;28;20030;-78
2023/10/17 09:23:47;;;;;;;1.17;0.80;;;;;;;;;;5002450;28;20049;-76
2023/10/17 09:26:23;;;;;;;1.00;0.80;;;;;;;;;;5001899;28;20021;-78
2023/10/17 09:28:50;;;;;;;5.15;1.15;;;;;;;;;;5022974;28;20014;-77
2023/10/17 09:31:17;;;;;;;1.63;1.25;;;;;;;;;;5022645;28;20026;-80
2023/10/17 09:33:44;;;;;;;1.08;0.80;;;;;;;;;;5004659;28;20385;-81
2023/10/17 09:36:11;;;;;;;1.02;0.82;;;;;;;;;;5007239;28;20060;-81
2023/10/17 09:38:43;;;;;;;2.28;0.88;;;;;;;;;;4972009;28;20077;-79
2023/10/17 09:41:17;;;;;;;2.25;1.08;;;;;;;;;;4961251;28;20023;-80
2023/10/17 09:43:43;;;;;;;0.80;0.73;;;;;;;;;;4979328;28;20026;-80
2023/10/17 09:46:10;;;;;;;1.08;0.75;;;;;;;;;;4961642;28;20031;-79
2023/10/17 09:48:37;;;;;;;1.85;1.38;;;;;;;;;;4961421;28;20038;-81
2023/10/17 09:51:07;;;;;;;0.90;0.80;;;;;;;;;;4961509;28;20023;-80
2023/10/17 09:53:35;;;;;;;2.83;0.95;;;;;;;;;;4963111;28;20023;-77
2023/10/17 09:56:06;;;;;;;1.35;0.90;;;;;;;;;;4962782;28;20022;-80
2023/10/17 09:58:34;;;;;;;1.45;1.00;;;;;;;;;;4962924;28;20023;-78
2023/10/17 10:01:20;;;;;;;1.02;0.90;;;;;;;;;;4965052;28;20019;-80
2023/10/17 10:03:51;;;;;;;1.25;0.98;;;;;;;;;;4967088;28;20619;-79
2023/10/17 10:06:21;;;;;;;2.83;1.02;;;;;;;;;;4966884;28;20157;-79
2023/10/17 10:08:48;;;;;;;4.47;1.40;;;;;;;;;;4965987;28;20086;-80
2023/10/17 10:11:15;;;;;;;1.33;1.13;;;;;;;;;;4967933;28;20423;-79
2023/10/17 10:14:00;;;;;;;1.50;1.17;;;;;;;;;;4967728;28;20019;-79
2023/10/17 10:16:46;;;;;;;1.50;0.98;;;;;;;;;;4969554;28;20378;-80
2023/10/17 10:19:14;;;;;;;0.90;0.80;;;;;;;;;;4968903;28;20047;-81
2023/10/17 10:21:55;;;;;;;1.17;0.80;;;;;;;;;;4969706;28;20031;-78
2023/10/17 10:24:29;;;;;;;1.17;0.95;;;;;;;;;;4968487;28;20033;-81
2023/10/17 10:27:18;;;;;;;1.33;1.00;;;;;;;;;;4969383;28;20022;-80
2023/10/17 10:29:55;;;;;;;1.10;0.80;;;;;;;;;;4968011;28;20027;-78
2023/10/17 10:32:24;;;;;;;1.42;1.20;;;;;;;;;;4967726;28;20034;-81
2023/10/17 10:34:50;;;;;;;0.80;0.80;;;;;;;;;;4971015;28;20381;-79
2023/10/17 10:37:16;;;;;;;1.83;1.35;;;;;;;;;;4984162;28;20033;-79
2023/10/17 10:40:03;;;;;;;2.00;1.48;;;;;;;;;;4971285;28;20023;-82
2023/10/17 10:42:40;;;;;;;1.77;1.33;;;;;;;;;;4978886;28;20427;-80
2023/10/17 10:45:07;;;;;;;0.82;0.73;;;;;;;;;;4969169;28;20034;-79
2023/10/17 10:47:33;;;;;;;1.88;1.70;;;;;;;;;;4987060;28;20030;-81
2023/10/17 10:50:02;;;;;;;1.83;1.00;;;;;;;;;;4975493;28;20027;-82
2023/10/17 10:52:28;;;;;;;1.35;0.95;;;;;;;;;;4981786;28;20027;-79
2023/10/17 10:54:59;;;;;;;0.95;0.73;;;;;;;;;;4979324;28;20483;-80
2023/10/17 10:57:29;;;;;;;2.70;1.42;;;;;;;;;;4988763;28;20029;-80
2023/10/17 10:59:55;;;;;;;1.60;1.10;;;;;;;;;;4976166;28;20021;-83
2023/10/17 11:02:21;;;;;;;1.13;0.90;;;;;;;;;;4972195;28;20114;-82
2023/10/17 11:04:50;;;;;;;1.23;0.80;;;;;;;;;;4970758;28;20023;-81
2023/10/17 11:07:23;;;;;;;1.30;0.70;;;;;;;;;;4985704;28;20096;-81
2023/10/17 11:10:03;;;;;;;0.80;0.60;;;;;;;;;;4984637;28;20019;-80
2023/10/17 11:12:29;;;;;;;1.55;1.20;;;;;;;;;;4973196;28;20042;-79
2023/10/17 11:15:14;;;;;;;1.02;0.77;;;;;;;;;;4972430;28;20042;-80
2023/10/17 11:17:41;;;;;;;1.40;1.00;;;;;;;;;;4983120;28;20030;-81
2023/10/17 11:20:14;;;;;;;1.30;0.90;;;;;;;;;;4986397;28;20023;-81
2023/10/17 11:22:40;;;;;;;0.90;0.75;;;;;;;;;;4987690;28;20030;-82
2023/10/17 11:25:08;;;;;;;0.93;0.80;;;;;;;;;;4987109;28;20097;-80
2023/10/17 11:27:34;;;;;;;1.17;0.88;;;;;;;;;;4966959;28;20112;-81
2023/10/17 11:30:00;;;;;;;0.80;0.70;;;;;;;;;;4969141;28;20018;-82
2023/10/17 11:32:28;;;;;;;0.52;0.52;;;;;;;;;;4976505;28;20364;-81
2023/10/17 11:35:05;;;;;;;1.10;0.80;;;;;;;;;;4977153;28;20029;-80
2023/10/17 11:37:34;;;;;;;1.20;0.90;;;;;;;;;;4983436;28;20027;-82
2023/10/17 11:40:26;;;;;;;1.67;1.10;;;;;;;;;;4965605;28;20030;-80
2023/10/17 11:42:49;;;;;;;1.20;1.00;;;;;;;;;;4997587;28;20065;-83
2023/10/17 11:48:26;;;;;;;2.75;1.42;;;;;;;;;;4918168;29;20024;-79
2023/10/17 11:51:18;;;;;;;2.30;1.05;;;;;;;;;;4902394;29;20468;-79
2023/10/17 11:54:03;;;;;;;1.00;0.88;;;;;;;;;;4917237;29;20079;-78
2023/10/17 11:56:31;;;;;;;1.20;1.10;;;;;;;;;;4901843;29;20465;-79
2023/10/17 11:58:57;;;;;;;1.77;0.80;;;;;;;;;;4902030;29;20420;-80
2023/10/17 12:01:23;;;;;;;1.27;0.90;;;;;;;;;;4901438;29;20430;-80
2023/10/17 12:03:56;;;;;;;1.42;0.82;;;;;;;;;;4901180;29;20051;-80
2023/10/17 12:06:26;;;;;;;1.02;0.85;;;;;;;;;;4901882;29;20078;-79
2023/10/17 12:08:52;;;;;;;3.40;1.58;;;;;;;;;;4901990;29;20028;-79
2023/10/17 12:11:18;;;;;;;1.30;1.00;;;;;;;;;;4902372;29;20445;-81
2023/10/17 12:13:44;;;;;;;1.45;0.95;;;;;;;;;;4901683;29;20036;-79
2023/10/17 12:16:11;;;;;;;1.42;1.23;;;;;;;;;;4901885;29;20115;-80
2023/10/17 12:18:37;;;;;;;1.13;0.93;;;;;;;;;;4901223;29;20491;-79
2023/10/17 12:21:14;;;;;;;2.90;1.58;;;;;;;;;;4901472;29;20039;-79
2023/10/17 12:23:40;;;;;;;2.88;1.60;;;;;;;;;;4911068;28;20448;-79
2023/10/17 12:26:19;;;;;;;1.58;1.35;;;;;;;;;;4973810;28;20030;-79
2023/10/17 12:28:46;;;;;;;1.10;0.80;;;;;;;;;;4970331;28;20072;-79
2023/10/17 12:31:16;;;;;;;1.20;0.90;;;;;;;;;;4965165;28;20463;-78
2023/10/17 12:33:44;;;;;;;0.98;0.75;;;;;;;;;;4963021;28;20025;-79
2023/10/17 12:36:12;;;;;;;1.20;1.08;;;;;;;;;;4973982;28;20471;-80
2023/10/17 12:38:39;;;;;;;2.78;1.23;;;;;;;;;;4961571;28;20518;-81
2023/10/17 12:41:06;;;;;;;1.77;1.10;;;;;;;;;;4974807;28;20038;-79
2023/10/17 12:43:36;;;;;;;2.38;1.30;;;;;;;;;;4978024;28;20081;-78
2023/10/17 12:46:02;;;;;;;1.27;0.93;;;;;;;;;;4966733;28;20030;-83
2023/10/17 12:48:28;;;;;;;5.85;1.30;;;;;;;;;;4980950;28;20018;-82
2023/10/17 12:50:55;;;;;;;2.80;2.17;;;;;;;;;;4970355;28;20027;-79
2023/10/17 12:53:21;;;;;;;1.40;1.17;;;;;;;;;;4977669;28;20034;-80
2023/10/17 12:55:47;;;;;;;2.58;1.42;;;;;;;;;;4965693;28;20109;-81
2023/10/17 12:58:18;;;;;;;1.45;0.95;;;;;;;;;;4983176;28;20025;-83
2023/10/17 13:00:47;;;;;;;1.13;0.90;;;;;;;;;;4975270;28;20491;-80
2023/10/17 13:03:14;;;;;;;2.65;1.50;;;;;;;;;;4983642;28;20054;-79
2023/10/17 13:05:40;;;;;;;5.03;1.02;;;;;;;;;;4970003;28;20081;-80
2023/10/17 13:08:07;;;;;;;1.58;1.25;;;;;;;;;;4976727;28;20026;-81
2023/10/17 13:10:33;;;;;;;1.73;1.27;;;;;;;;;;4976326;28;20023;-80
2023/10/17 13:12:59;;;;;;;1.73;1.33;;;;;;;;;;4974382;28;20077;-81
2023/10/17 13:15:26;;;;;;;1.67;1.30;;;;;;;;;;4960569;28;20066;-82
2023/10/17 13:17:55;;;;;;;0.75;0.73;;;;;;;;;;4963890;28;20018;-79
2023/10/17 13:20:32;;;;;;;1.17;0.90;;;;;;;;;;4978800;28;20088;-80
2023/10/17 13:23:04;;;;;;;2.97;1.05;;;;;;;;;;4970007;28;20027;-81
2023/10/17 13:25:30;;;;;;;;;;;;;;;;;;4977018;28;20026;-79
2023/10/17 13:27:56;;;;;;;0.93;0.82;;;;;;;;;;4966904;28;20376;-79
2023/10/17 13:30:22;;;;;;;0.93;0.77;;;;;;;;;;4972568;28;20015;-81
2023/10/17 13:32:52;;;;;;;1.27;0.88;;;;;;;;;;4959230;28;20441;-80
2023/10/17 13:35:19;;;;;;;1.38;0.90;;;;;;;;;;4958347;28;20364;-82
2023/10/17 13:37:51;;;;;;;1.25;1.00;;;;;;;;;;4992145;28;20030;-80
2023/10/17 13:40:19;;;;;;;0.68;0.68;;;;;;;;;;4966021;28;20025;-81
2023/10/17 13:42:46;;;;;;;1.00;0.80;;;;;;;;;;4978404;28;20479;-81
2023/10/17 13:45:13;;;;;;;0.73;0.70;;;;;;;;;;4964189;28;20058;-81
2023/10/17 13:47:42;;;;;;;1.10;0.88;;;;;;;;;;4962132;28;20038;-82
2023/10/17 13:50:15;;;;;;;0.82;0.70;;;;;;;;;;4980203;28;20415;-80
2023/10/17 13:52:42;;;;;;;0.88;0.70;;;;;;;;;;4979899;28;20026;-81
2023/10/17 13:55:11;;;;;;;0.90;0.70;;;;;;;;;;4966934;28;20027;-79
2023/10/17 13:57:42;;;;;;;1.38;0.85;;;;;;;;;;4977490;28;20030;-79
2023/10/17 14:00:09;;;;;;;0.82;0.70;;;;;;;;;;4961782;28;20023;-78
2023/10/17 14:02:35;;;;;;;0.80;0.70;;;;;;;;;;4969453;28;20085;-79
2023/10/17 14:05:02;;;;;;;1.20;0.90;;;;;;;;;;4967428;28;20371;-79
2023/10/17 14:07:28;;;;;;;1.27;1.10;;;;;;;;;;4977700;28;20541;-78
2023/10/17 14:09:58;;;;;;;2.17;1.02;;;;;;;;;;4965644;28;20481;-79
2023/10/17 14:12:25;;;;;;;2.65;1.75;;;;;;;;;;4974657;28;20130;-79
2023/10/17 14:14:51;;;;;;;1.55;1.42;;;;;;;;;;4976374;28;20038;-79
2023/10/17 14:17:20;;;;;;;1.00;0.90;;;;;;;;;;4986283;28;20035;-79
2023/10/17 14:19:46;;;;;;;1.45;1.08;;;;;;;;;;4977270;28;20038;-79
2023/10/17 14:27:22;;;;;;;0.75;0.70;;;;;;;;;;4980137;28;20027;-80
2023/10/17 14:29:49;;;;;;;1.00;0.80;;;;;;;;;;4977717;28;20374;-78
2023/10/17 14:32:22;;;;;;;1.25;0.90;;;;;;;;;;4977718;28;20368;-79
2023/10/17 14:34:51;;;;;;;1.15;1.00;;;;;;;;;;4967499;28;20027;-79
2023/10/17 14:37:22;;;;;;;2.75;1.10;;;;;;;;;;4974175;28;20023;-80
2023/10/17 14:39:48;;;;;;;0.90;0.75;;;;;;;;;;4959839;28;20022;-79
2023/10/17 14:42:14;;;;;;;1.10;0.90;;;;;;;;;;4965346;28;20029;-79
2023/10/17 14:44:46;;;;;;;1.15;0.80;;;;;;;;;;4969325;28;20130;-81
2023/10/17 14:47:19;;;;;;;1.30;1.20;;;;;;;;;;4977684;28;20029;-81
2023/10/17 14:49:46;;;;;;;1.15;0.90;;;;;;;;;;4981240;28;20039;-86
2023/10/17 14:52:13;;;;;;;1.10;0.80;;;;;;;;;;4964487;28;20031;-83
2023/10/17 14:54:40;;;;;;;4.05;1.33;;;;;;;;;;4973962;28;20033;-82
2023/10/17 14:57:06;;;;;;;1.10;1.00;;;;;;;;;;4969723;28;20035;-81
2023/10/17 14:59:34;;;;;;;0.77;0.77;;;;;;;;;;4979512;28;20041;-82
2023/10/17 15:02:04;;;;;;;0.88;0.75;;;;;;;;;;4969394;28;20053;-84
2023/10/17 15:04:30;;;;;;;1.63;1.10;;;;;;;;;;4991373;28;20057;-81
2023/10/17 15:06:57;;;;;;;0.65;0.60;;;;;;;;;;4971341;28;20062;-81
2023/10/17 15:09:24;;;;;;;1.65;1.20;;;;;;;;;;4966003;28;20113;-82
2023/10/17 15:11:50;;;;;;;0.85;0.70;;;;;;;;;;4966997;28;20022;-80
2023/10/17 15:14:16;;;;;;;0.70;0.60;;;;;;;;;;4982228;28;20026;-79
2023/10/17 15:16:43;;;;;;;0.40;0.40;;;;;;;;;;4988543;28;20030;-80
2023/10/17 15:19:09;;;;;;;1.25;0.85;;;;;;;;;;4994081;28;20023;-80
2023/10/17 15:21:36;;;;;;;3.75;0.98;;;;;;;;;;4967523;28;20482;-80
2023/10/17 15:24:03;;;;;;;0.68;0.68;;;;;;;;;;4984638;28;20081;-79
2023/10/17 15:26:29;;;;;;;1.42;0.82;;;;;;;;;;4975166;28;20031;-79
2023/10/17 15:28:55;;;;;;;1.30;1.10;;;;;;;;;;4964506;28;20464;-78
2023/10/17 15:31:21;;;;;;;1.40;1.10;;;;;;;;;;4980381;28;20138;-79
2023/10/17 15:33:47;;;;;;;0.93;0.77;;;;;;;;;;4967611;28;20023;-80
2023/10/17 15:36:14;;;;;;;1.05;0.95;;;;;;;;;;4984127;28;20034;-83
2023/10/17 15:38:40;;;;;;;0.80;0.70;;;;;;;;;;4985522;28;20027;-81
2023/10/17 15:41:08;;;;;;;1.23;1.08;;;;;;;;;;4972211;28;20121;-81
2023/10/17 15:43:34;;;;;;;2.35;1.05;;;;;;;;;;4968838;28;20085;-80
2023/10/17 15:46:00;;;;;;;2.90;1.45;;;;;;;;;;4968034;28;20114;-81
2023/10/17 15:48:27;;;;;;;3.20;1.40;;;;;;;;;;4964970;28;20038;-82
2023/10/17 15:50:56;;;;;;;1.20;1.00;;;;;;;;;;4963429;28;20118;-82
2023/10/17 15:53:27;;;;;;;2.00;1.05;;;;;;;;;;4963055;28;20459;-82
2023/10/17 15:55:57;;;;;;;1.10;0.73;;;;;;;;;;4962456;28;20046;-79
2023/10/17 15:58:26;;;;;;;1.10;0.90;;;;;;;;;;4962247;28;20077;-80
2023/10/17 16:00:52;;;;;;;2.42;1.33;;;;;;;;;;4964137;28;20027;-79
2023/10/17 16:03:19;;;;;;;0.80;0.80;;;;;;;;;;4962771;28;20498;-80
2023/10/17 16:05:46;;;;;;;1.52;1.13;;;;;;;;;;4960480;29;20051;-82
2023/10/17 16:08:13;;;;;;;3.22;1.50;;;;;;;;;;4959465;29;20027;-79
2023/10/17 16:10:39;;;;;;;9.85;1.88;;;;;;;;;;4958640;29;20035;-79
2023/10/17 16:13:10;;;;;;;3.92;1.25;;;;;;;;;;4959147;29;20176;-79
2023/10/17 16:15:37;;;;;;;1.10;1.00;;;;;;;;;;4958632;29;20131;-78
2023/10/17 16:18:03;;;;;;;1.38;1.00;;;;;;;;;;4959127;29;20074;-83
2023/10/17 16:20:31;;;;;;;0.85;0.75;;;;;;;;;;4961216;29;20023;-80
2023/10/17 16:22:58;;;;;;;3.67;1.15;;;;;;;;;;4960804;29;20126;-80
2023/10/17 16:25:24;;;;;;;2.10;1.58;;;;;;;;;;4961323;29;20091;-80
2023/10/17 16:27:52;;;;;;;2.05;1.30;;;;;;;;;;4960270;29;20023;-82
2023/10/17 16:30:20;;;;;;;1.25;1.02;;;;;;;;;;4958735;29;20023;-78
2023/10/17 16:32:47;;;;;;;3.63;1.23;;;;;;;;;;4958232;29;20035;-81
2023/10/17 16:35:17;;;;;;;2.28;1.10;;;;;;;;;;4956747;29;20094;-79
2023/10/17 16:37:43;;;;;;;1.42;1.13;;;;;;;;;;4958054;29;20054;-81
2023/10/17 16:40:11;;;;;;;3.58;1.52;;;;;;;;;;4958927;29;20023;-78
2023/10/17 16:42:40;;;;;;;1.90;1.15;;;;;;;;;;4959303;29;20039;-78
2023/10/17 16:45:06;;;;;;;4.03;1.63;;;;;;;;;;4959811;29;20129;-78
2023/10/17 16:47:32;;;;;;;1.95;1.35;;;;;;;;;;4967693;29;20091;-84
2023/10/17 16:50:00;;;;;;;2.15;1.13;;;;;;;;;;4968502;29;20380;-81
2023/10/17 16:52:28;;;;;;;2.42;1.45;;;;;;;;;;4966556;29;20038;-82
2023/10/17 16:54:54;;;;;;;1.83;1.33;;;;;;;;;;4959693;28;20023;-81
2023/10/17 16:57:20;;;;;;;2.70;1.38;;;;;;;;;;4958245;29;20023;-82
2023/10/17 16:59:48;;;;;;;4.03;1.20;;;;;;;;;;4958385;29;20123;-81
2023/10/17 17:02:15;;;;;;;3.28;0.95;;;;;;;;;;4958420;28;20067;-80
2023/10/17 17:04:42;;;;;;;2.30;1.65;;;;;;;;;;4956928;29;20090;-80
2023/10/17 17:07:08;;;;;;;0.85;0.77;;;;;;;;;;4959311;29;20027;-82
2023/10/17 17:09:36;;;;;;;3.95;1.35;;;;;;;;;;4956676;28;20027;-80
2023/10/17 17:12:02;;;;;;;0.95;0.85;;;;;;;;;;4958416;29;20057;-79
2023/10/17 17:14:28;;;;;;;1.20;0.90;;;;;;;;;;4958211;29;20035;-77
2023/10/17 17:16:57;;;;;;;1.38;0.98;;;;;;;;;;4957563;29;20058;-81
2023/10/17 17:19:27;;;;;;;1.52;1.02;;;;;;;;;;4957448;29;20023;-79
2023/10/17 17:21:54;;;;;;;2.75;1.40;;;;;;;;;;4958287;29;20054;-80
2023/10/17 17:24:20;;;;;;;1.88;1.27;;;;;;;;;;4958091;29;20028;-79